HEBA/HBE METAR and TAF weather

Enter ICAO airport designator
Station Type Date Time Source
HEBA METAR 2020/07/04 02:00 UTC NOAA

HEBA 040200Z 32005KT CAVOK 23/21 Q1007 NOSIG


Station Type Date Time Source
HEBA Decoded METAR 2020/07/04 02:00 UTC NOAA

Alexandria Borg El Arab, Egypt (HEBA) 31-31N 030-10E
Jul 03, 2020 - 10:00 PM EDT / 2020.07.04 0200 UTC
Wind: from the NW (320 degrees) at 6 MPH (5 KT):0
Visibility: greater than 7 mile(s):0
Temperature: 73 F (23 C)
Dew Point: 69 F (21 C)
Relative Humidity: 88%
Pressure (altimeter): 29.74 in. Hg (1007 hPa)
ob: HEBA 040200Z 32005KT CAVOK 23/21 Q1007 NOSIG
cycle: 2

Station Type Date Time Source
HEBA TAF 2020/07/03 18:51 UTC NOAA

TAF HEBA 031700Z 0318/0424 30008KT 9999 FEW020

Example: see airport list